Time;durP1;ratioP1;P1;durP2;ratioP2;P2;SDS_P1;SDS_P2;PMS_P1;PMS_P2;Temp;Humidity;BMP_temperature;BMP_pressure;BME280_temperature;BME280_humidity;BME280_pressure;Samples;Min_cycle;Max_cycle;Signal;HPM_P1;HPM_P2
2023/09/27 00:01:57;;;;;;;8.10;4.30;;;;;;;23.24;45.11;95439.75;6038281;28;108918;-69
2023/09/27 00:05:01;;;;;;;6.03;4.13;;;;;;;23.15;45.28;95433.53;6034035;28;109309;-68
2023/09/27 00:08:06;;;;;;;7.20;4.00;;;;;;;23.19;45.08;95431.09;6011932;28;109256;-69
2023/09/27 00:11:11;;;;;;;7.07;4.20;;;;;;;22.95;45.69;95431.34;6039138;28;109590;-70
2023/09/27 00:14:15;;;;;;;7.10;4.38;;;;;;;22.83;45.88;95426.53;6038811;28;108978;-68
2023/09/27 00:17:18;;;;;;;6.55;4.53;;;;;;;22.85;46.30;95426.22;6019298;28;109085;-68
2023/09/27 00:20:21;;;;;;;7.80;4.20;;;;;;;22.82;46.08;95424.94;6027725;28;108903;-68
2023/09/27 00:23:25;;;;;;;8.10;4.38;;;;;;;22.69;46.68;95413.25;6039626;28;109011;-67
2023/09/27 00:26:29;;;;;;;6.60;3.95;;;;;;;22.73;46.34;95415.31;6038409;28;108921;-67
2023/09/27 00:29:32;;;;;;;7.28;4.20;;;;;;;22.70;46.46;95417.50;6026819;28;110854;-65
2023/09/27 00:32:36;;;;;;;7.75;4.50;;;;;;;22.65;46.41;95414.91;6039472;28;108971;-65
2023/09/27 00:35:39;;;;;;;8.33;4.20;;;;;;;22.67;46.49;95403.94;6033327;28;108817;-66
2023/09/27 00:38:42;;;;;;;9.97;4.60;;;;;;;22.69;46.60;95401.78;6017184;28;109108;-66
2023/09/27 00:41:47;;;;;;;8.80;4.75;;;;;;;22.76;46.42;95404.03;6025226;28;108918;-65
2023/09/27 00:44:50;;;;;;;10.20;4.65;;;;;;;22.69;46.63;95399.91;6038305;28;109216;-66
2023/09/27 00:47:54;;;;;;;6.60;4.30;;;;;;;22.91;46.28;95396.47;6029521;28;109213;-66
2023/09/27 00:50:57;;;;;;;7.75;4.50;;;;;;;22.80;46.70;95405.78;6031655;28;108913;-67
2023/09/27 00:54:01;;;;;;;6.70;4.50;;;;;;;22.73;46.63;95404.63;6036907;28;108986;-66
2023/09/27 00:57:06;;;;;;;6.57;4.13;;;;;;;22.86;46.69;95409.16;6019849;28;109023;-65
2023/09/27 01:00:11;;;;;;;8.00;4.30;;;;;;;22.82;46.64;95408.94;6037649;28;108928;-65
2023/09/27 01:03:15;;;;;;;6.47;4.30;;;;;;;22.95;45.95;95402.00;6028257;28;109557;-65
2023/09/27 01:06:19;;;;;;;6.32;4.00;;;;;;;23.11;45.86;95400.53;6036357;28;109926;-66
2023/09/27 01:09:22;;;;;;;6.15;4.10;;;;;;;23.30;45.49;95406.50;6037352;28;109283;-67
2023/09/27 01:12:27;;;;;;;7.85;4.30;;;;;;;23.26;45.27;95405.53;6038778;28;109032;-65
2023/09/27 01:15:31;;;;;;;6.27;4.17;;;;;;;23.31;45.32;95407.31;6019692;28;108905;-66
2023/09/27 01:18:34;;;;;;;5.80;3.85;;;;;;;23.40;44.81;95408.16;6031190;28;109191;-66
2023/09/27 01:21:37;;;;;;;7.05;4.20;;;;;;;23.45;45.03;95401.91;6038565;28;108928;-66
2023/09/27 01:24:42;;;;;;;7.37;4.10;;;;;;;23.36;45.35;95409.09;6031832;28;109002;-66
2023/09/27 01:27:46;;;;;;;7.40;4.13;;;;;;;23.46;45.23;95408.81;6034867;28;109521;-66
2023/09/27 01:30:49;;;;;;;6.90;4.00;;;;;;;23.52;44.54;95396.91;6042618;28;109315;-66
2023/09/27 01:33:52;;;;;;;6.55;4.30;;;;;;;23.59;44.88;95394.59;6039941;28;109250;-66
2023/09/27 01:36:55;;;;;;;4.90;3.53;;;;;;;23.63;44.69;95402.78;6033659;28;109940;-66
2023/09/27 01:40:00;;;;;;;6.13;3.80;;;;;;;23.49;44.96;95400.19;6042478;28;108945;-67
2023/09/27 01:43:05;;;;;;;5.77;4.03;;;;;;;23.56;44.95;95400.56;6042246;28;109385;-67
2023/09/27 01:46:08;;;;;;;5.30;3.75;;;;;;;23.59;44.95;95399.94;6040859;28;108916;-67
2023/09/27 01:49:11;;;;;;;7.73;4.10;;;;;;;23.58;44.48;95398.38;6031096;28;109080;-66
2023/09/27 01:52:14;;;;;;;6.88;4.20;;;;;;;23.62;44.84;95391.31;6042267;28;109072;-67
2023/09/27 01:55:19;;;;;;;6.97;4.20;;;;;;;23.65;44.60;95396.03;6040239;28;109116;-67
2023/09/27 01:58:22;;;;;;;6.30;4.20;;;;;;;23.70;44.32;95389.78;6030848;28;108836;-67
2023/09/27 02:01:25;;;;;;;7.13;4.00;;;;;;;23.71;44.42;95394.81;6032154;28;109016;-67
2023/09/27 02:04:29;;;;;;;7.60;3.75;;;;;;;23.64;44.50;95388.31;6030688;28;109056;-66
2023/09/27 02:07:32;;;;;;;3.92;3.50;;;;;;;23.64;44.98;95391.78;6041096;28;108969;-67
2023/09/27 02:10:36;;;;;;;6.38;3.80;;;;;;;23.59;45.00;95397.28;6031612;28;109152;-66
2023/09/27 02:13:39;;;;;;;5.47;3.90;;;;;;;23.59;44.68;95398.06;6040637;28;109260;-67
2023/09/27 02:16:46;;;;;;;5.15;3.92;;;;;;;23.60;44.51;95399.63;6026145;28;108986;-66
2023/09/27 02:19:49;;;;;;;4.80;3.75;;;;;;;23.66;45.00;95392.25;6040526;28;108994;-66
2023/09/27 02:22:55;;;;;;;6.97;3.80;;;;;;;23.66;44.80;95391.47;6029817;28;108944;-66
2023/09/27 02:26:00;;;;;;;5.05;3.90;;;;;;;23.67;44.37;95399.19;6028092;28;108925;-66
2023/09/27 02:29:03;;;;;;;5.40;3.60;;;;;;;23.69;44.25;95393.53;6034877;28;109078;-65
2023/09/27 02:32:08;;;;;;;5.25;3.65;;;;;;;23.69;44.42;95397.03;6025701;28;108886;-66
2023/09/27 02:35:13;;;;;;;6.43;4.10;;;;;;;23.71;44.42;95399.38;6020228;28;108984;-66
2023/09/27 02:38:17;;;;;;;5.65;4.00;;;;;;;23.71;44.26;95386.03;6040853;28;109001;-66
2023/09/27 02:41:21;;;;;;;8.18;3.97;;;;;;;23.68;44.16;95395.41;6039688;28;108921;-66
2023/09/27 02:44:25;;;;;;;6.35;3.85;;;;;;;23.66;44.29;95400.28;6034345;28;108997;-66
2023/09/27 02:47:28;;;;;;;7.47;4.22;;;;;;;23.62;44.30;95399.31;6035674;28;109390;-65
2023/09/27 02:50:31;;;;;;;7.85;3.80;;;;;;;23.60;44.34;95406.84;6039875;28;108916;-67
2023/09/27 02:53:34;;;;;;;5.53;3.85;;;;;;;23.38;44.78;95407.69;6041072;28;108963;-65
2023/09/27 02:56:39;;;;;;;7.37;3.70;;;;;;;23.46;44.79;95406.16;6029956;28;109161;-66
2023/09/27 02:59:42;;;;;;;5.75;3.80;;;;;;;23.51;44.48;95403.34;6040618;28;108942;-65
2023/09/27 03:02:45;;;;;;;6.63;4.00;;;;;;;23.45;44.17;95410.69;6038127;28;110560;-66
2023/09/27 03:05:49;;;;;;;9.90;4.40;;;;;;;23.47;44.35;95402.38;6023720;28;108935;-67
2023/09/27 03:08:53;;;;;;;6.43;4.72;;;;;;;23.50;44.59;95415.13;6028594;28;109154;-66
2023/09/27 03:11:58;;;;;;;6.53;4.20;;;;;;;23.58;44.31;95419.75;6039154;28;109019;-66
2023/09/27 03:15:01;;;;;;;7.30;4.60;;;;;;;23.66;43.87;95416.31;6032517;28;110000;-66
2023/09/27 03:18:05;;;;;;;9.47;4.50;;;;;;;23.72;43.99;95415.09;6036179;28;109209;-67
2023/09/27 03:21:08;;;;;;;9.68;4.15;;;;;;;23.79;44.17;95414.66;6034502;28;109259;-66
2023/09/27 03:24:11;;;;;;;8.52;4.00;;;;;;;23.78;43.95;95408.53;6031266;28;108872;-65
2023/09/27 03:27:16;;;;;;;10.48;4.50;;;;;;;23.76;44.80;95415.28;6036403;28;108999;-67
2023/09/27 03:30:19;;;;;;;8.70;4.63;;;;;;;23.79;44.13;95404.75;6031071;28;109875;-66
2023/09/27 03:33:22;;;;;;;10.33;4.50;;;;;;;23.82;44.58;95414.81;6039988;28;109193;-65
2023/09/27 03:36:25;;;;;;;6.28;4.40;;;;;;;23.74;43.90;95420.94;6039174;28;109269;-65
2023/09/27 03:39:34;;;;;;;7.05;4.50;;;;;;;23.71;44.67;95420.75;6017632;28;108983;-66
2023/09/27 03:42:41;;;;;;;5.35;4.15;;;;;;;23.70;44.32;95422.63;6025841;28;109356;-66
2023/09/27 03:45:45;;;;;;;10.40;6.05;;;;;;;23.49;44.32;95425.00;6029237;28;109114;-66
2023/09/27 03:48:48;;;;;;;8.07;5.10;;;;;;;23.42;44.91;95429.22;6034969;28;108905;-65
2023/09/27 03:51:51;;;;;;;9.13;5.60;;;;;;;23.37;44.52;95432.03;6026405;28;108917;-67
2023/09/27 03:54:54;;;;;;;12.23;5.20;;;;;;;23.45;44.40;95431.28;6027340;28;109677;-68
2023/09/27 03:57:59;;;;;;;10.38;5.00;;;;;;;23.52;44.29;95431.63;6026187;28;109153;-66
2023/09/27 04:01:03;;;;;;;10.95;5.30;;;;;;;23.55;44.19;95428.38;6027019;28;109044;-67
2023/09/27 04:04:06;;;;;;;7.93;4.70;;;;;;;23.53;44.21;95433.22;6020143;28;109297;-66
2023/09/27 04:07:09;;;;;;;7.60;4.93;;;;;;;23.53;43.62;95438.56;6027821;28;109614;-68
2023/09/27 04:10:12;;;;;;;10.95;4.93;;;;;;;23.61;45.11;95443.16;6021301;28;108941;-68
2023/09/27 04:13:17;;;;;;;8.13;4.60;;;;;;;23.57;45.89;95444.88;6021020;28;110260;-67
2023/09/27 04:16:20;;;;;;;6.97;4.70;;;;;;;23.66;44.52;95444.91;6021601;28;109558;-67
2023/09/27 04:19:23;;;;;;;9.97;4.60;;;;;;;23.64;44.35;95442.56;6026958;28;109233;-68
2023/09/27 04:22:26;;;;;;;7.63;4.72;;;;;;;23.58;44.40;95443.78;6037851;28;108973;-61
2023/09/27 04:25:29;;;;;;;5.57;4.32;;;;;;;23.55;44.02;95441.72;6039304;28;108910;-62
2023/09/27 04:28:34;;;;;;;6.68;4.60;;;;;;;23.54;44.01;95450.84;6028916;28;110451;-61
2023/09/27 04:31:38;;;;;;;7.05;4.03;;;;;;;23.52;43.63;95447.66;6039574;28;108902;-61
2023/09/27 04:34:41;;;;;;;8.23;5.93;;;;;;;23.50;43.61;95445.28;6039296;28;109199;-61
2023/09/27 04:37:45;;;;;;;10.48;7.75;;;;;;;23.49;43.65;95450.94;6034719;28;109008;-61
2023/09/27 04:40:48;;;;;;;9.95;6.80;;;;;;;23.46;43.58;95444.31;6033490;28;109022;-61
2023/09/27 04:43:53;;;;;;;8.30;5.50;;;;;;;23.48;43.83;95447.47;6039781;28;108889;-60
2023/09/27 04:46:57;;;;;;;6.50;5.23;;;;;;;23.50;43.53;95450.63;6039486;28;109209;-60
2023/09/27 04:50:00;;;;;;;8.13;5.20;;;;;;;23.48;43.80;95452.81;6029055;28;108917;-60
2023/09/27 04:53:04;;;;;;;6.10;5.20;;;;;;;23.46;43.80;95448.88;6038531;28;109463;-60
2023/09/27 04:56:10;;;;;;;8.23;5.90;;;;;;;23.49;43.71;95456.28;6039085;28;109069;-61
2023/09/27 04:59:14;;;;;;;8.82;5.35;;;;;;;23.47;43.48;95450.47;6038918;28;109094;-61
2023/09/27 05:02:17;;;;;;;7.10;5.50;;;;;;;23.48;43.55;95454.69;6030037;28;109013;-58
2023/09/27 05:05:21;;;;;;;6.78;5.00;;;;;;;23.48;43.60;95452.81;6041937;28;109058;-59
2023/09/27 05:08:24;;;;;;;5.70;5.00;;;;;;;23.48;43.42;95458.16;6043205;28;108817;-60
2023/09/27 05:11:27;;;;;;;7.18;4.70;;;;;;;23.49;43.28;95458.94;6042949;28;109023;-59
2023/09/27 05:14:32;;;;;;;6.57;5.00;;;;;;;23.50;43.18;95449.84;6032406;28;109267;-58
2023/09/27 05:17:35;;;;;;;8.75;5.03;;;;;;;23.49;43.38;95461.63;6043141;28;109103;-60
2023/09/27 05:20:39;;;;;;;11.70;10.50;;;;;;;23.51;43.62;95456.75;6043134;28;108897;-59
2023/09/27 05:23:42;;;;;;;9.60;8.70;;;;;;;23.54;43.61;95461.53;6035932;28;109253;-62
2023/09/27 05:26:45;;;;;;;8.48;6.95;;;;;;;23.54;43.36;95464.19;6039633;28;108992;-59
2023/09/27 05:29:49;;;;;;;10.75;5.90;;;;;;;23.54;43.30;95464.19;6039898;28;109000;-59
2023/09/27 05:32:53;;;;;;;9.20;5.57;;;;;;;23.54;43.14;95461.53;6042398;28;109344;-59
2023/09/27 05:35:56;;;;;;;8.48;5.22;;;;;;;23.59;43.32;95466.72;6031120;28;108949;-59
2023/09/27 05:39:01;;;;;;;10.57;5.70;;;;;;;23.58;43.10;95470.50;6042765;28;108849;-59
2023/09/27 05:42:04;;;;;;;7.07;5.70;;;;;;;23.59;42.87;95467.53;6042803;28;108899;-59
2023/09/27 05:45:11;;;;;;;7.57;5.50;;;;;;;23.63;43.23;95470.38;6042746;28;108969;-60
2023/09/27 05:48:16;;;;;;;7.72;5.50;;;;;;;23.65;43.37;95470.06;6031986;28;108822;-60
2023/09/27 05:51:19;;;;;;;8.82;5.13;;;;;;;23.67;43.05;95471.31;6042341;28;109000;-59
2023/09/27 05:54:22;;;;;;;8.52;5.35;;;;;;;23.70;42.98;95468.06;6041311;28;108929;-59
2023/09/27 05:57:25;;;;;;;7.18;5.03;;;;;;;23.75;42.85;95473.28;6037420;28;108973;-63
2023/09/27 06:00:38;;;;;;;7.28;5.10;;;;;;;23.78;42.59;95472.66;6036036;28;108961;-59
2023/09/27 06:03:41;;;;;;;8.17;6.47;;;;;;;23.85;43.06;95472.22;6042172;28;109291;-59
2023/09/27 06:06:45;;;;;;;11.40;9.52;;;;;;;23.92;42.80;95477.16;6017841;29;109301;-58
2023/09/27 06:09:48;;;;;;;9.57;7.20;;;;;;;23.98;42.43;95471.34;6017348;28;109900;-59
2023/09/27 06:12:51;;;;;;;6.25;5.10;;;;;;;24.05;42.76;95478.97;6041682;28;108958;-61
2023/09/27 06:15:56;;;;;;;6.80;5.40;;;;;;;24.12;42.84;95482.00;6041476;28;108912;-60
2023/09/27 06:18:59;;;;;;;8.18;5.70;;;;;;;24.16;42.61;95477.59;6041826;28;109073;-60
2023/09/27 06:22:05;;;;;;;7.65;5.00;;;;;;;24.24;42.73;95484.88;6031388;28;108954;-60
2023/09/27 06:25:09;;;;;;;6.00;5.07;;;;;;;24.31;42.22;95490.56;6040620;28;109266;-60
2023/09/27 06:28:13;;;;;;;5.30;4.80;;;;;;;24.39;42.18;95495.16;6042037;28;109275;-60
2023/09/27 06:31:18;;;;;;;6.40;4.90;;;;;;;24.48;41.72;95495.97;6038718;28;108889;-62
2023/09/27 06:34:21;;;;;;;7.13;5.13;;;;;;;24.58;41.78;95489.56;6035641;28;108920;-60
2023/09/27 06:37:24;;;;;;;7.10;4.77;;;;;;;24.65;41.47;95489.88;6041413;28;108932;-61
2023/09/27 06:40:29;;;;;;;5.97;4.60;;;;;;;24.74;41.43;95492.63;6041357;28;109192;-60
2023/09/27 06:43:32;;;;;;;7.18;4.88;;;;;;;24.82;41.40;95483.03;6031125;28;108918;-62
2023/09/27 06:46:37;;;;;;;6.30;5.00;;;;;;;24.89;41.27;95486.84;6041785;28;108948;-60
2023/09/27 06:49:51;;;;;;;7.22;5.30;;;;;;;24.98;41.27;95482.25;6041365;28;108797;-60
2023/09/27 06:52:54;;;;;;;6.03;5.32;;;;;;;25.05;40.99;95489.84;6041496;28;108937;-61
2023/09/27 06:56:17;;;;;;;6.63;4.90;;;;;;;25.04;41.32;95497.09;6029771;28;109315;-61
2023/09/27 06:59:21;;;;;;;7.53;5.00;;;;;;;25.06;41.21;95488.75;6040771;28;109038;-61
2023/09/27 07:02:25;;;;;;;6.10;4.60;;;;;;;25.14;40.98;95490.63;6040992;28;108935;-60
2023/09/27 07:05:28;;;;;;;5.80;4.47;;;;;;;25.20;41.15;95488.56;6035592;28;109067;-61
2023/09/27 07:08:32;;;;;;;5.10;4.45;;;;;;;25.25;40.90;95497.25;6035424;28;109021;-60
2023/09/27 07:11:36;;;;;;;5.85;4.40;;;;;;;25.29;40.72;95492.84;6041055;28;108991;-61
2023/09/27 07:14:40;;;;;;;5.80;4.60;;;;;;;25.36;40.70;95497.75;6040627;28;109015;-60
2023/09/27 07:17:44;;;;;;;6.50;4.40;;;;;;;25.40;40.67;95496.03;6030680;28;108912;-60
2023/09/27 07:20:51;;;;;;;6.13;4.30;;;;;;;25.40;40.73;95496.03;6040431;28;108921;-62
2023/09/27 07:23:54;;;;;;;6.67;3.97;;;;;;;25.46;40.39;95497.44;6041604;28;108851;-70
2023/09/27 07:26:57;;;;;;;4.60;4.10;;;;;;;25.49;40.66;95496.81;6039509;28;109048;-71
2023/09/27 07:30:03;;;;;;;4.97;3.97;;;;;;;25.51;40.32;95499.16;6025813;28;108951;-71
2023/09/27 07:33:10;;;;;;;5.40;4.00;;;;;;;25.53;40.51;95502.31;6017506;29;108808;-69
2023/09/27 07:36:14;;;;;;;4.15;3.70;;;;;;;25.52;40.34;95501.53;6032305;28;108925;-70
2023/09/27 07:39:19;;;;;;;5.80;4.25;;;;;;;25.53;40.46;95502.31;6040411;28;108962;-72
2023/09/27 07:42:22;;;;;;;5.00;3.50;;;;;;;25.55;40.36;95500.94;6030953;28;109029;-70
2023/09/27 07:45:30;;;;;;;4.90;3.97;;;;;;;25.51;40.52;95499.16;6040202;28;108906;-70
2023/09/27 07:48:37;;;;;;;4.93;3.70;;;;;;;25.48;40.63;95497.91;6040545;28;109032;-70
2023/09/27 07:51:41;;;;;;;4.10;3.70;;;;;;;25.46;40.77;95505.50;6031955;28;109876;-69
2023/09/27 07:54:46;;;;;;;7.23;3.90;;;;;;;25.45;40.52;95490.50;6039462;28;108914;-70
2023/09/27 07:57:52;;;;;;;4.80;3.70;;;;;;;25.47;40.54;95488.31;6039288;28;109001;-71
2023/09/27 08:00:56;;;;;;;4.20;3.50;;;;;;;25.50;40.49;95486.88;6040271;28;108828;-70
2023/09/27 08:04:06;;;;;;;5.60;3.55;;;;;;;25.51;40.49;95485.78;6029689;28;109012;-71
2023/09/27 08:07:13;;;;;;;4.43;3.50;;;;;;;25.53;40.45;95489.69;6039391;28;109076;-72
2023/09/27 08:10:17;;;;;;;4.85;3.50;;;;;;;25.49;40.51;95486.09;6040109;28;109088;-71
2023/09/27 08:13:25;;;;;;;5.93;3.97;;;;;;;25.49;40.35;95486.09;6039566;28;109066;-71
2023/09/27 08:16:29;;;;;;;4.70;3.38;;;;;;;25.49;40.60;95486.09;6031814;28;108976;-71
2023/09/27 08:19:33;;;;;;;4.88;3.90;;;;;;;25.48;40.34;95483.72;6040048;28;108931;-71
2023/09/27 08:22:39;;;;;;;3.90;3.35;;;;;;;25.52;40.17;95481.97;6039675;28;109142;-70
2023/09/27 08:25:42;;;;;;;5.28;3.80;;;;;;;25.52;40.01;95484.66;6029023;28;109029;-69
2023/09/27 08:28:45;;;;;;;4.10;3.35;;;;;;;25.51;40.02;95483.88;6038443;28;108935;-72
2023/09/27 08:31:48;;;;;;;5.03;3.70;;;;;;;25.50;39.75;95481.53;6039584;28;109293;-71
2023/09/27 08:34:53;;;;;;;6.10;3.80;;;;;;;25.49;39.81;95480.72;6039228;28;109203;-71
2023/09/27 08:37:56;;;;;;;6.65;3.60;;;;;;;25.53;39.62;95478.97;6031371;28;109008;-70
2023/09/27 08:40:59;;;;;;;5.18;3.72;;;;;;;25.58;39.69;95473.47;6043535;28;108915;-71
2023/09/27 08:44:03;;;;;;;4.00;3.40;;;;;;;25.62;39.69;95471.72;6043768;28;108925;-71
2023/09/27 08:47:07;;;;;;;5.32;3.42;;;;;;;25.66;39.71;95472.66;6043279;28;108902;-70
2023/09/27 08:50:13;;;;;;;4.30;3.42;;;;;;;25.72;39.64;95480.56;6033167;28;109925;-70
2023/09/27 08:53:17;;;;;;;5.65;3.40;;;;;;;25.76;39.69;95473.44;6043375;28;108954;-70
2023/09/27 08:56:21;;;;;;;4.57;3.20;;;;;;;25.73;39.44;95463.38;6043784;28;109136;-71
2023/09/27 08:59:24;;;;;;;5.25;3.50;;;;;;;25.78;39.72;95472.03;6037355;28;108937;-70
2023/09/27 09:02:28;;;;;;;4.80;3.50;;;;;;;25.83;39.23;95468.38;6038264;28;110530;-70
2023/09/27 09:05:34;;;;;;;5.68;3.30;;;;;;;25.86;38.83;95467.72;6042847;28;108992;-70
2023/09/27 09:08:40;;;;;;;5.60;3.30;;;;;;;25.87;39.05;95463.94;6043281;28;109101;-70
2023/09/27 09:11:48;;;;;;;4.22;3.30;;;;;;;25.86;39.28;95470.41;6032966;28;108981;-70
2023/09/27 09:14:54;;;;;;;4.00;3.60;;;;;;;25.76;39.65;95474.25;6043625;28;109165;-70
2023/09/27 09:17:59;;;;;;;5.55;3.50;;;;;;;25.73;39.30;95474.09;6042976;28;109094;-70
2023/09/27 09:21:14;;;;;;;4.30;3.30;;;;;;;25.77;39.03;95458.94;6042983;28;108925;-70
2023/09/27 09:24:20;;;;;;;3.70;3.20;;;;;;;25.74;39.15;95462.25;6032569;28;110762;-70
2023/09/27 09:27:23;;;;;;;5.70;3.00;;;;;;;25.70;39.43;95459.41;6042519;28;108951;-70
2023/09/27 09:30:35;;;;;;;4.30;3.10;;;;;;;25.70;39.69;95456.72;6042073;28;109460;-70
2023/09/27 09:33:38;;;;;;;4.40;3.10;;;;;;;25.63;39.75;95459.91;6037324;28;108955;-61
2023/09/27 09:36:43;;;;;;;4.03;3.35;;;;;;;25.64;39.68;95442.72;6038592;28;108990;-69
2023/09/27 09:39:47;;;;;;;3.90;3.00;;;;;;;25.66;39.40;95445.88;6042489;28;108937;-69
2023/09/27 09:42:51;;;;;;;3.90;3.10;;;;;;;25.60;39.60;95449.03;6042708;28;109169;-70
2023/09/27 09:45:55;;;;;;;4.50;3.20;;;;;;;25.58;39.52;95430.59;6031836;28;109740;-61
2023/09/27 09:48:58;;;;;;;5.30;3.30;;;;;;;25.56;39.70;95440.84;6041129;28;108920;-59
2023/09/27 09:52:05;;;;;;;4.68;3.10;;;;;;;25.54;39.19;95429.66;6042885;28;109046;-58
2023/09/27 09:55:10;;;;;;;4.47;3.28;;;;;;;25.59;39.13;95434.84;6042309;28;108973;-58
2023/09/27 09:58:35;;;;;;;5.75;3.17;;;;;;;25.64;39.34;95437.34;6031953;28;109377;-58
2023/09/27 10:01:39;;;;;;;4.65;3.50;;;;;;;25.63;38.94;95430.41;6041798;28;109078;-58
2023/09/27 10:04:43;;;;;;;5.28;3.40;;;;;;;25.63;38.77;95426.94;6042275;28;108916;-59
2023/09/27 10:07:48;;;;;;;4.20;3.17;;;;;;;25.62;38.84;95425.38;6034023;28;110355;-63
2023/09/27 10:10:51;;;;;;;5.90;3.37;;;;;;;25.56;39.16;95424.00;6039770;28;109163;-60
2023/09/27 10:13:55;;;;;;;6.32;3.45;;;;;;;25.57;38.96;95420.19;6042110;28;108990;-58
2023/09/27 10:16:59;;;;;;;4.27;3.30;;;;;;;25.61;38.61;95419.25;6042618;28;109486;-58
2023/09/27 10:20:14;;;;;;;5.60;3.50;;;;;;;25.56;39.32;95426.66;6031277;28;109963;-58
2023/09/27 10:23:18;;;;;;;4.20;2.90;;;;;;;25.49;38.54;95416.41;6041733;28;108912;-59
2023/09/27 10:26:32;;;;;;;4.60;3.70;;;;;;;25.45;39.10;95406.66;6042173;28;109140;-59
2023/09/27 10:29:55;;;;;;;5.20;3.10;;;;;;;25.42;39.11;95410.75;6041821;28;108883;-59
2023/09/27 10:33:31;;;;;;;4.50;3.70;;;;;;;25.28;38.72;95399.41;6035242;28;109224;-60
2023/09/27 10:36:35;;;;;;;5.97;4.00;;;;;;;25.17;38.77;95398.94;6041383;28;108951;-63
2023/09/27 10:39:40;;;;;;;5.95;3.70;;;;;;;25.17;38.45;95398.16;6041512;28;108957;-63
2023/09/27 10:42:43;;;;;;;6.68;3.97;;;;;;;25.19;38.17;95394.03;6030473;28;108909;-63
2023/09/27 10:45:55;;;;;;;7.40;4.10;;;;;;;25.19;38.26;95390.56;6041589;28;108946;-63
2023/09/27 10:48:59;;;;;;;7.68;4.30;;;;;;;25.20;39.03;95384.91;6042264;28;108909;-63
2023/09/27 10:52:02;;;;;;;5.35;3.85;;;;;;;25.21;38.78;95396.44;6042792;28;108888;-63
2023/09/27 10:55:11;;;;;;;5.85;4.03;;;;;;;25.20;38.70;95392.16;6032935;28;110552;-62
2023/09/27 10:58:17;;;;;;;7.30;4.30;;;;;;;25.22;39.34;95385.41;6040964;28;108801;-62
2023/09/27 11:01:21;;;;;;;7.30;4.53;;;;;;;25.29;39.38;95379.53;6023123;28;109020;-61
2023/09/27 11:04:25;;;;;;;7.32;4.57;;;;;;;25.38;39.75;95377.69;6026365;28;108965;-63
2023/09/27 11:07:43;;;;;;;5.40;4.40;;;;;;;25.35;39.95;95378.28;6022970;28;108913;-62
2023/09/27 11:10:49;;;;;;;8.30;4.40;;;;;;;25.33;39.60;95367.88;6036498;28;108896;-62
2023/09/27 11:13:52;;;;;;;6.60;3.80;;;;;;;25.37;39.67;95373.41;6038749;28;110731;-61
2023/09/27 11:16:55;;;;;;;5.18;3.80;;;;;;;25.33;40.36;95373.22;6024704;28;108955;-61
2023/09/27 11:20:10;;;;;;;6.43;4.40;;;;;;;25.29;40.64;95369.63;6043585;28;109123;-61
2023/09/27 11:23:14;;;;;;;4.80;4.15;;;;;;;25.36;40.75;95366.47;6037932;28;108955;-61
2023/09/27 11:26:20;;;;;;;6.82;4.22;;;;;;;25.37;41.28;95355.47;6035842;28;109706;-61
2023/09/27 11:29:26;;;;;;;5.75;4.47;;;;;;;25.35;41.32;95357.66;6024712;28;108997;-61
2023/09/27 11:32:29;;;;;;;6.28;4.22;;;;;;;25.36;41.40;95355.75;6041135;28;109011;-61
2023/09/27 11:35:32;;;;;;;4.38;3.97;;;;;;;25.34;41.58;95363.28;6037357;28;108929;-62
2023/09/27 11:38:35;;;;;;;6.32;3.90;;;;;;;25.35;41.10;95362.22;6036212;28;109269;-61
2023/09/27 11:41:40;;;;;;;7.05;4.30;;;;;;;25.34;41.45;95357.94;6036047;28;109102;-61
2023/09/27 11:44:43;;;;;;;4.30;3.90;;;;;;;25.35;41.58;95359.53;6032042;28;109737;-62
2023/09/27 11:47:47;;;;;;;7.38;4.30;;;;;;;25.37;41.93;95362.69;6042361;28;109080;-62
2023/09/27 11:50:50;;;;;;;6.85;4.53;;;;;;;25.32;42.05;95360.94;6031990;28;108999;-61
2023/09/27 11:53:54;;;;;;;7.57;4.30;;;;;;;25.34;41.92;95360.63;6031795;28;109071;-61
2023/09/27 11:56:59;;;;;;;6.05;4.75;;;;;;;25.34;41.79;95355.25;6036954;28;108880;-60
2023/09/27 12:00:03;;;;;;;6.93;4.70;;;;;;;25.33;42.01;95353.69;6030260;28;109305;-60
2023/09/27 12:03:10;;;;;;;5.50;4.20;;;;;;;25.32;42.25;95352.13;6026742;28;110506;-60
2023/09/27 12:06:13;;;;;;;8.05;4.35;;;;;;;25.34;41.89;95344.53;6034779;28;109136;-66
2023/09/27 12:09:17;;;;;;;7.22;4.40;;;;;;;25.34;42.13;95347.22;6038927;28;108958;-66
2023/09/27 12:12:22;;;;;;;6.35;3.95;;;;;;;25.32;42.14;95342.19;6031453;28;108975;-66
2023/09/27 12:15:25;;;;;;;6.83;5.10;;;;;;;25.34;42.15;95344.53;6033618;28;109726;-69
2023/09/27 12:18:28;;;;;;;5.90;4.78;;;;;;;25.33;41.62;95342.97;6041114;28;108998;-68
2023/09/27 12:21:34;;;;;;;5.82;4.53;;;;;;;25.34;41.67;95334.63;6045163;28;109510;-67
2023/09/27 12:24:37;;;;;;;5.60;4.60;;;;;;;25.36;41.92;95331.63;6031355;28;109287;-66
2023/09/27 12:27:42;;;;;;;5.80;4.50;;;;;;;25.29;42.38;95336.69;6037087;28;109260;-67
2023/09/27 12:30:45;;;;;;;5.43;4.60;;;;;;;25.29;42.05;95331.31;6039349;28;108901;-68
2023/09/27 12:33:48;;;;;;;6.40;4.70;;;;;;;25.26;42.63;95335.44;6031822;28;108595;-68
2023/09/27 12:36:51;;;;;;;6.60;4.82;;;;;;;25.29;42.60;95332.13;6027519;28;109021;-68
2023/09/27 12:39:54;;;;;;;6.75;5.40;;;;;;;25.29;42.76;95331.31;6037059;28;109236;-68
2023/09/27 12:42:59;;;;;;;8.50;5.47;;;;;;;25.28;42.61;95321.72;6040265;28;109517;-68
2023/09/27 12:46:02;;;;;;;5.68;4.90;;;;;;;25.26;42.87;95338.13;6040292;28;109239;-68
2023/09/27 12:49:05;;;;;;;7.00;5.30;;;;;;;25.23;42.73;95333.41;6027374;28;108930;-67
2023/09/27 12:52:08;;;;;;;10.17;5.80;;;;;;;25.27;42.65;95328.19;6037386;28;108903;-68
2023/09/27 12:55:11;;;;;;;6.20;5.50;;;;;;;25.28;42.75;95335.91;6036438;28;108935;-68
2023/09/27 12:58:16;;;;;;;6.30;5.27;;;;;;;25.27;42.98;95334.31;6037585;28;109945;-65
2023/09/27 13:01:19;;;;;;;6.80;5.30;;;;;;;25.22;43.00;95336.41;6042355;28;111671;-68
2023/09/27 13:04:22;;;;;;;8.88;5.78;;;;;;;25.24;42.72;95334.19;6040193;28;108976;-70
2023/09/27 13:07:25;;;;;;;5.68;5.18;;;;;;;25.22;42.82;95339.88;6035369;28;108985;-68
2023/09/27 13:10:29;;;;;;;6.60;5.63;;;;;;;25.25;42.89;95331.19;6028103;28;109287;-67
2023/09/27 13:13:33;;;;;;;6.03;5.43;;;;;;;25.25;42.89;95341.91;6036989;28;109048;-62
2023/09/27 13:16:36;;;;;;;6.53;5.50;;;;;;;25.24;42.80;95328.81;6039507;28;109147;-61
2023/09/27 13:19:39;;;;;;;7.90;5.70;;;;;;;25.22;43.30;95331.03;6046759;28;108899;-62
2023/09/27 13:22:42;;;;;;;6.60;5.20;;;;;;;25.23;43.11;95327.25;6034433;28;109203;-62
2023/09/27 13:25:52;;;;;;;7.43;5.00;;;;;;;25.24;43.23;95334.97;6039833;28;109277;-62
2023/09/27 13:28:56;;;;;;;9.33;5.10;;;;;;;25.18;43.05;95332.75;6042003;28;109198;-61
2023/09/27 13:31:59;;;;;;;8.02;5.10;;;;;;;25.16;42.96;95343.00;6034779;28;108925;-62
2023/09/27 13:35:04;;;;;;;5.50;4.80;;;;;;;25.15;42.82;95336.88;6032251;28;109489;-62
2023/09/27 13:38:07;;;;;;;8.48;4.90;;;;;;;25.17;42.75;95342.69;6041482;28;108900;-61
2023/09/27 13:41:14;;;;;;;7.30;5.20;;;;;;;25.15;42.46;95344.13;6040023;28;109000;-62
2023/09/27 13:44:19;;;;;;;7.85;4.97;;;;;;;25.17;42.90;95334.66;6026367;28;108979;-62
2023/09/27 13:47:22;;;;;;;6.77;5.00;;;;;;;25.17;42.68;95337.31;6039004;28;108976;-62
2023/09/27 13:50:27;;;;;;;5.30;4.80;;;;;;;25.23;42.48;95340.66;6044173;28;109117;-62
2023/09/27 13:53:30;;;;;;;5.07;4.50;;;;;;;25.22;43.04;95331.81;6040276;28;110345;-62
2023/09/27 13:56:34;;;;;;;6.88;5.10;;;;;;;25.20;42.95;95333.22;6029835;28;109033;-62
2023/09/27 13:59:39;;;;;;;6.22;4.70;;;;;;;25.21;42.95;95342.84;6036597;28;109236;-62
2023/09/27 14:02:42;;;;;;;5.30;4.80;;;;;;;25.13;43.00;95338.28;6036807;28;109315;-62
2023/09/27 14:05:46;;;;;;;6.00;4.50;;;;;;;25.15;42.92;95328.81;6037402;28;108925;-62
2023/09/27 14:08:49;;;;;;;7.35;5.20;;;;;;;25.12;43.22;95332.16;6030525;28;109054;-63
2023/09/27 14:11:52;;;;;;;9.30;5.00;;;;;;;25.06;43.10;95326.19;6040027;28;109720;-63
2023/09/27 14:14:58;;;;;;;7.63;4.80;;;;;;;24.97;43.17;95333.44;6038805;28;109401;-62
2023/09/27 14:18:01;;;;;;;7.77;5.13;;;;;;;24.90;42.44;95325.09;6030810;28;109296;-62